sensor_id;sensor_type;location;lat;lon;timestamp;pressure;altitude;pressure_sealevel;temperature;humidity
18569;BME280;14780;48.316;-1.050;2023-12-20T00:01:17;99971.56;;;24.13;37.44
18569;BME280;14780;48.316;-1.050;2023-12-20T00:04:03;99966.34;;;24.11;37.37
18569;BME280;14780;48.316;-1.050;2023-12-20T00:06:48;99976.47;;;24.11;37.25
18569;BME280;14780;48.316;-1.050;2023-12-20T00:09:32;99981.66;;;24.12;37.33
18569;BME280;14780;48.316;-1.050;2023-12-20T00:12:17;99978.91;;;24.12;37.29
18569;BME280;14780;48.316;-1.050;2023-12-20T00:15:01;99971.81;;;24.11;37.34
18569;BME280;14780;48.316;-1.050;2023-12-20T00:17:46;99982.25;;;24.14;37.11
18569;BME280;14780;48.316;-1.050;2023-12-20T00:20:31;99982.19;;;24.09;37.16
18569;BME280;14780;48.316;-1.050;2023-12-20T00:23:16;99986.31;;;24.12;37.08
18569;BME280;14780;48.316;-1.050;2023-12-20T00:26:00;99984.06;;;24.09;37.09
18569;BME280;14780;48.316;-1.050;2023-12-20T00:28:45;99989.22;;;24.05;37.19
18569;BME280;14780;48.316;-1.050;2023-12-20T00:31:30;99999.66;;;24.08;37.11
18569;BME280;14780;48.316;-1.050;2023-12-20T00:34:14;99994.69;;;24.05;36.87
18569;BME280;14780;48.316;-1.050;2023-12-20T00:36:59;99992.78;;;24.06;37.01
18569;BME280;14780;48.316;-1.050;2023-12-20T00:39:43;99991.94;;;24.05;36.87
18569;BME280;14780;48.316;-1.050;2023-12-20T00:42:28;99993.03;;;24.04;36.98
18569;BME280;14780;48.316;-1.050;2023-12-20T00:45:12;99993.03;;;24.04;36.98
18569;BME280;14780;48.316;-1.050;2023-12-20T00:47:57;99995.19;;;24.02;36.93
18569;BME280;14780;48.316;-1.050;2023-12-20T00:50:43;99997.94;;;24.02;36.63
18569;BME280;14780;48.316;-1.050;2023-12-20T00:53:28;100002.31;;;24.03;36.54
18569;BME280;14780;48.316;-1.050;2023-12-20T00:56:13;99992.53;;;24.07;36.53
18569;BME280;14780;48.316;-1.050;2023-12-20T00:58:58;99993.34;;;24.08;36.63
18569;BME280;14780;48.316;-1.050;2023-12-20T01:01:42;99989.50;;;24.04;36.60
18569;BME280;14780;48.316;-1.050;2023-12-20T01:04:27;100001.84;;;24.06;36.54
18569;BME280;14780;48.316;-1.050;2023-12-20T01:07:12;100003.97;;;24.04;36.39
18569;BME280;14780;48.316;-1.050;2023-12-20T01:09:57;100001.31;;;24.09;36.36
18569;BME280;14780;48.316;-1.050;2023-12-20T01:12:41;100016.31;;;24.07;36.23
18569;BME280;14780;48.316;-1.050;2023-12-20T01:15:26;100003.97;;;24.04;36.13
18569;BME280;14780;48.316;-1.050;2023-12-20T01:18:10;100012.25;;;24.09;36.32
18569;BME280;14780;48.316;-1.050;2023-12-20T01:20:55;100009.50;;;24.09;36.21
18569;BME280;14780;48.316;-1.050;2023-12-20T01:23:40;100008.69;;;24.09;36.20
18569;BME280;14780;48.316;-1.050;2023-12-20T01:26:24;100005.13;;;24.08;36.22
18569;BME280;14780;48.316;-1.050;2023-12-20T01:29:09;100007.63;;;24.10;36.31
18569;BME280;14780;48.316;-1.050;2023-12-20T01:31:54;100013.09;;;24.10;36.04
18569;BME280;14780;48.316;-1.050;2023-12-20T01:34:39;100006.22;;;24.07;36.10
18569;BME280;14780;48.316;-1.050;2023-12-20T01:37:23;100011.03;;;24.00;36.11
18569;BME280;14780;48.316;-1.050;2023-12-20T01:40:10;100003.41;;;24.02;36.03
18569;BME280;14780;48.316;-1.050;2023-12-20T01:43:04;100015.75;;;24.05;35.94
18569;BME280;14780;48.316;-1.050;2023-12-20T01:45:52;100013.81;;;24.05;35.92
18569;BME280;14780;48.316;-1.050;2023-12-20T01:48:37;100007.78;;;24.03;35.85
18569;BME280;14780;48.316;-1.050;2023-12-20T01:51:22;100012.16;;;24.04;35.98
18569;BME280;14780;48.316;-1.050;2023-12-20T01:54:07;100003.72;;;24.06;35.94
18569;BME280;14780;48.316;-1.050;2023-12-20T01:56:53;100006.66;;;23.99;35.82
18569;BME280;14780;48.316;-1.050;2023-12-20T01:59:40;100005.56;;;24.00;35.99
18569;BME280;14780;48.316;-1.050;2023-12-20T02:02:26;99994.53;;;23.95;35.98
18569;BME280;14780;48.316;-1.050;2023-12-20T02:05:13;100003.84;;;23.94;36.31
18569;BME280;14780;48.316;-1.050;2023-12-20T02:07:58;100009.22;;;23.89;36.13
18569;BME280;14780;48.316;-1.050;2023-12-20T02:10:42;100005.41;;;23.90;36.02
18569;BME280;14780;48.316;-1.050;2023-12-20T02:13:28;100010.28;;;23.88;36.11
18569;BME280;14780;48.316;-1.050;2023-12-20T02:16:12;100026.34;;;23.85;35.99
18569;BME280;14780;48.316;-1.050;2023-12-20T02:18:57;100041.44;;;23.87;36.09
18569;BME280;14780;48.316;-1.050;2023-12-20T02:21:42;100047.38;;;23.84;36.02
18569;BME280;14780;48.316;-1.050;2023-12-20T02:24:26;100052.84;;;23.84;36.09
18569;BME280;14780;48.316;-1.050;2023-12-20T02:27:12;100057.72;;;23.82;36.02
18569;BME280;14780;48.316;-1.050;2023-12-20T02:29:57;100042.41;;;23.81;36.10
18569;BME280;14780;48.316;-1.050;2023-12-20T02:32:42;100035.78;;;23.77;36.17
18569;BME280;14780;48.316;-1.050;2023-12-20T02:35:26;100033.13;;;23.82;35.90
18569;BME280;14780;48.316;-1.050;2023-12-20T02:38:11;100026.34;;;23.85;35.85
18569;BME280;14780;48.316;-1.050;2023-12-20T02:40:55;100036.44;;;23.84;35.83
18569;BME280;14780;48.316;-1.050;2023-12-20T02:43:40;100032.63;;;23.85;35.75
18569;BME280;14780;48.316;-1.050;2023-12-20T02:46:25;100023.84;;;23.83;35.72
18569;BME280;14780;48.316;-1.050;2023-12-20T02:49:09;100020.88;;;23.85;35.67
18569;BME280;14780;48.316;-1.050;2023-12-20T02:51:54;100027.41;;;23.84;35.66
18569;BME280;14780;48.316;-1.050;2023-12-20T02:54:38;100013.41;;;23.80;35.87
18569;BME280;14780;48.316;-1.050;2023-12-20T02:57:23;100014.75;;;23.78;35.97
18569;BME280;14780;48.316;-1.050;2023-12-20T03:00:11;100027.84;;;23.76;35.94
18569;BME280;14780;48.316;-1.050;2023-12-20T03:02:56;100019.97;;;23.79;35.74
18569;BME280;14780;48.316;-1.050;2023-12-20T03:05:40;100022.13;;;23.77;35.66
18569;BME280;14780;48.316;-1.050;2023-12-20T03:08:25;100016.66;;;23.77;35.72
18569;BME280;14780;48.316;-1.050;2023-12-20T03:11:10;100022.38;;;23.76;35.82
18569;BME280;14780;48.316;-1.050;2023-12-20T03:13:55;100030.00;;;23.74;35.76
18569;BME280;14780;48.316;-1.050;2023-12-20T03:16:39;100023.69;;;23.73;35.77
18569;BME280;14780;48.316;-1.050;2023-12-20T03:19:24;100032.22;;;23.77;35.73
18569;BME280;14780;48.316;-1.050;2023-12-20T03:22:09;100036.59;;;23.78;35.81
18569;BME280;14780;48.316;-1.050;2023-12-20T03:24:54;100029.50;;;23.77;35.64
18569;BME280;14780;48.316;-1.050;2023-12-20T03:27:38;100029.25;;;23.78;35.68
18569;BME280;14780;48.316;-1.050;2023-12-20T03:30:23;100014.50;;;23.79;35.66
18569;BME280;14780;48.316;-1.050;2023-12-20T03:33:07;100018.03;;;23.80;35.65
18569;BME280;14780;48.316;-1.050;2023-12-20T03:35:52;100011.78;;;23.79;35.59
18569;BME280;14780;48.316;-1.050;2023-12-20T03:38:37;100021.28;;;23.77;35.53
18569;BME280;14780;48.316;-1.050;2023-12-20T03:41:21;100022.38;;;23.76;35.58
18569;BME280;14780;48.316;-1.050;2023-12-20T03:44:06;100020.22;;;23.78;35.49
18569;BME280;14780;48.316;-1.050;2023-12-20T03:46:50;100010.13;;;23.78;35.51
18569;BME280;14780;48.316;-1.050;2023-12-20T03:49:35;100015.59;;;23.78;35.58
18569;BME280;14780;48.316;-1.050;2023-12-20T03:52:21;100005.13;;;23.75;35.61
18569;BME280;14780;48.316;-1.050;2023-12-20T03:55:06;100013.31;;;23.75;35.48
18569;BME280;14780;48.316;-1.050;2023-12-20T03:57:51;100016.06;;;23.75;35.46
18569;BME280;14780;48.316;-1.050;2023-12-20T04:00:35;100016.06;;;23.75;35.47
18569;BME280;14780;48.316;-1.050;2023-12-20T04:03:20;100013.59;;;23.74;35.52
18569;BME280;14780;48.316;-1.050;2023-12-20T04:06:04;100003.47;;;23.74;35.50
18569;BME280;14780;48.316;-1.050;2023-12-20T04:08:49;100008.13;;;23.74;35.45
18569;BME280;14780;48.316;-1.050;2023-12-20T04:11:33;99998.84;;;23.75;35.44
18569;BME280;14780;48.316;-1.050;2023-12-20T04:14:18;100004.31;;;23.75;35.39
18569;BME280;14780;48.316;-1.050;2023-12-20T04:17:03;100023.19;;;23.76;35.30
18569;BME280;14780;48.316;-1.050;2023-12-20T04:19:48;100017.97;;;23.75;35.42
18569;BME280;14780;48.316;-1.050;2023-12-20T04:22:33;100029.66;;;23.70;35.32
18569;BME280;14780;48.316;-1.050;2023-12-20T04:25:17;100029.16;;;23.73;35.21
18569;BME280;14780;48.316;-1.050;2023-12-20T04:28:02;100017.31;;;23.68;35.38
18569;BME280;14780;48.316;-1.050;2023-12-20T04:30:47;100013.28;;;23.70;35.34
18569;BME280;14780;48.316;-1.050;2023-12-20T04:33:32;100015.69;;;23.67;35.39
18569;BME280;14780;48.316;-1.050;2023-12-20T04:36:17;100017.91;;;23.70;35.42
18569;BME280;14780;48.316;-1.050;2023-12-20T04:39:01;100012.44;;;23.70;35.40
18569;BME280;14780;48.316;-1.050;2023-12-20T04:41:46;100012.09;;;23.66;35.39
18569;BME280;14780;48.316;-1.050;2023-12-20T04:44:32;100008.28;;;23.67;35.26
18569;BME280;14780;48.316;-1.050;2023-12-20T04:47:16;100013.66;;;23.62;35.46
18569;BME280;14780;48.316;-1.050;2023-12-20T04:50:01;100020.81;;;23.63;35.34
18569;BME280;14780;48.316;-1.050;2023-12-20T04:52:46;100023.03;;;23.66;35.27
18569;BME280;14780;48.316;-1.050;2023-12-20T04:55:31;100035.53;;;23.62;35.36
18569;BME280;14780;48.316;-1.050;2023-12-20T04:58:16;100026.50;;;23.62;35.28
18569;BME280;14780;48.316;-1.050;2023-12-20T05:01:02;100022.94;;;23.61;35.36
18569;BME280;14780;48.316;-1.050;2023-12-20T05:03:48;100015.00;;;23.60;35.36
18569;BME280;14780;48.316;-1.050;2023-12-20T05:06:32;100027.00;;;23.59;35.41
18569;BME280;14780;48.316;-1.050;2023-12-20T05:09:17;100023.84;;;23.50;35.48
18569;BME280;14780;48.316;-1.050;2023-12-20T05:12:02;100027.34;;;23.46;35.60
18569;BME280;14780;48.316;-1.050;2023-12-20T05:14:47;100027.34;;;23.46;35.66
18569;BME280;14780;48.316;-1.050;2023-12-20T05:17:32;100014.31;;;23.37;35.64
18569;BME280;14780;48.316;-1.050;2023-12-20T05:20:17;100018.81;;;23.42;35.73
18569;BME280;14780;48.316;-1.050;2023-12-20T05:23:02;100027.00;;;23.42;35.60
18569;BME280;14780;48.316;-1.050;2023-12-20T05:25:47;100023.84;;;23.34;35.81
18569;BME280;14780;48.316;-1.050;2023-12-20T05:28:32;100025.81;;;23.38;35.66
18569;BME280;14780;48.316;-1.050;2023-12-20T05:31:16;100035.25;;;23.47;35.54
18569;BME280;14780;48.316;-1.050;2023-12-20T05:34:01;100033.28;;;23.43;35.45
18569;BME280;14780;48.316;-1.050;2023-12-20T05:36:45;100036.63;;;23.45;35.46
18569;BME280;14780;48.316;-1.050;2023-12-20T05:39:30;100037.94;;;23.42;35.59
18569;BME280;14780;48.316;-1.050;2023-12-20T05:42:15;100041.75;;;23.42;35.51
18569;BME280;14780;48.316;-1.050;2023-12-20T05:44:59;100033.28;;;23.43;35.50
18569;BME280;14780;48.316;-1.050;2023-12-20T05:47:44;100042.22;;;23.38;35.45
18569;BME280;14780;48.316;-1.050;2023-12-20T05:50:29;100042.22;;;23.38;35.47
18569;BME280;14780;48.316;-1.050;2023-12-20T05:53:13;100039.25;;;23.40;35.58
18569;BME280;14780;48.316;-1.050;2023-12-20T05:55:58;100043.88;;;23.39;35.49
18569;BME280;14780;48.316;-1.050;2023-12-20T05:58:42;100041.97;;;23.40;35.35
18569;BME280;14780;48.316;-1.050;2023-12-20T06:01:28;100036.19;;;23.37;35.41
18569;BME280;14780;48.316;-1.050;2023-12-20T06:04:12;100037.81;;;23.38;35.40
18569;BME280;14780;48.316;-1.050;2023-12-20T06:06:57;100038.06;;;23.36;35.48
18569;BME280;14780;48.316;-1.050;2023-12-20T06:09:42;100029.63;;;23.38;35.50
18569;BME280;14780;48.316;-1.050;2023-12-20T06:12:26;100028.78;;;23.37;35.44
18569;BME280;14780;48.316;-1.050;2023-12-20T06:15:13;100038.25;;;23.46;35.30
18569;BME280;14780;48.316;-1.050;2023-12-20T06:17:58;100052.16;;;23.44;35.50
18569;BME280;14780;48.316;-1.050;2023-12-20T06:20:42;100052.16;;;23.44;35.61
18569;BME280;14780;48.316;-1.050;2023-12-20T06:23:27;100056.31;;;23.47;35.51
18569;BME280;14780;48.316;-1.050;2023-12-20T06:26:12;100050.00;;;23.46;35.59
18569;BME280;14780;48.316;-1.050;2023-12-20T06:28:57;100052.16;;;23.44;35.54
18569;BME280;14780;48.316;-1.050;2023-12-20T06:31:41;100042.22;;;23.38;35.50
18569;BME280;14780;48.316;-1.050;2023-12-20T06:34:26;100060.19;;;23.35;35.42
18569;BME280;14780;48.316;-1.050;2023-12-20T06:37:11;100068.09;;;23.36;35.44
18569;BME280;14780;48.316;-1.050;2023-12-20T06:39:55;100066.13;;;23.32;35.50
18569;BME280;14780;48.316;-1.050;2023-12-20T06:42:41;100071.00;;;23.30;35.53
18569;BME280;14780;48.316;-1.050;2023-12-20T06:45:26;100073.72;;;23.30;35.45
18569;BME280;14780;48.316;-1.050;2023-12-20T06:48:10;100071.00;;;23.30;35.49
18569;BME280;14780;48.316;-1.050;2023-12-20T06:51:00;100078.63;;;23.28;35.46
18569;BME280;14780;48.316;-1.050;2023-12-20T06:53:45;100085.41;;;23.25;35.62
18569;BME280;14780;48.316;-1.050;2023-12-20T06:56:29;100086.53;;;23.29;35.85
18569;BME280;14780;48.316;-1.050;2023-12-20T06:59:14;100092.94;;;23.35;35.37
18569;BME280;14780;48.316;-1.050;2023-12-20T07:01:59;100089.72;;;23.38;35.60
18569;BME280;14780;48.316;-1.050;2023-12-20T07:04:44;100086.94;;;23.49;35.57
18569;BME280;14780;48.316;-1.050;2023-12-20T07:07:28;100093.22;;;23.49;35.37
18569;BME280;14780;48.316;-1.050;2023-12-20T07:10:13;100102.50;;;23.48;35.45
18569;BME280;14780;48.316;-1.050;2023-12-20T07:12:58;100075.38;;;23.31;35.71
18569;BME280;14780;48.316;-1.050;2023-12-20T07:15:43;100083.56;;;23.31;35.90
18569;BME280;14780;48.316;-1.050;2023-12-20T07:18:27;100090.94;;;23.30;35.98
18569;BME280;14780;48.316;-1.050;2023-12-20T07:21:12;100087.78;;;23.22;36.21
18569;BME280;14780;48.316;-1.050;2023-12-20T07:23:56;100089.38;;;23.34;36.48
18569;BME280;14780;48.316;-1.050;2023-12-20T07:26:41;100104.63;;;23.46;36.37
18569;BME280;14780;48.316;-1.050;2023-12-20T07:29:26;100103.22;;;23.44;36.39
18569;BME280;14780;48.316;-1.050;2023-12-20T07:32:10;100085.91;;;23.38;36.37
18569;BME280;14780;48.316;-1.050;2023-12-20T07:34:55;100095.75;;;23.39;36.34
18569;BME280;14780;48.316;-1.050;2023-12-20T07:37:40;100088.53;;;23.33;36.23
18569;BME280;14780;48.316;-1.050;2023-12-20T07:40:25;100087.28;;;23.25;35.74
18569;BME280;14780;48.316;-1.050;2023-12-20T07:43:09;100090.84;;;23.25;35.00
18569;BME280;14780;48.316;-1.050;2023-12-20T07:45:54;100093.19;;;23.33;35.36
18569;BME280;14780;48.316;-1.050;2023-12-20T07:48:38;100096.50;;;23.35;35.27
18569;BME280;14780;48.316;-1.050;2023-12-20T07:51:23;100102.88;;;23.40;35.34
18569;BME280;14780;48.316;-1.050;2023-12-20T07:54:07;100111.75;;;23.47;35.23
18569;BME280;14780;48.316;-1.050;2023-12-20T07:56:52;100099.34;;;23.40;35.50
18569;BME280;14780;48.316;-1.050;2023-12-20T07:59:37;100090.91;;;23.42;35.59
18569;BME280;14780;48.316;-1.050;2023-12-20T08:02:22;100095.53;;;23.41;35.65
18569;BME280;14780;48.316;-1.050;2023-12-20T08:05:07;100087.56;;;23.39;35.80
18569;BME280;14780;48.316;-1.050;2023-12-20T08:07:52;100082.59;;;23.37;35.89
18569;BME280;14780;48.316;-1.050;2023-12-20T08:10:37;100083.19;;;23.38;35.99
18569;BME280;14780;48.316;-1.050;2023-12-20T08:13:21;100093.53;;;23.37;36.17
18569;BME280;14780;48.316;-1.050;2023-12-20T08:16:10;100096.50;;;23.35;35.94
18569;BME280;14780;48.316;-1.050;2023-12-20T08:18:57;100091.88;;;23.36;35.84
18569;BME280;14780;48.316;-1.050;2023-12-20T08:21:42;100094.34;;;23.37;36.00
18569;BME280;14780;48.316;-1.050;2023-12-20T08:24:27;100093.53;;;23.37;35.99
18569;BME280;14780;48.316;-1.050;2023-12-20T08:27:12;100103.28;;;23.33;36.18
18569;BME280;14780;48.316;-1.050;2023-12-20T08:29:56;100111.56;;;23.38;36.10
18569;BME280;14780;48.316;-1.050;2023-12-20T08:32:41;100114.31;;;23.38;36.24
18569;BME280;14780;48.316;-1.050;2023-12-20T08:35:26;100121.91;;;23.36;36.22
18569;BME280;14780;48.316;-1.050;2023-12-20T08:38:11;100127.97;;;23.38;36.28
18569;BME280;14780;48.316;-1.050;2023-12-20T08:40:56;100127.47;;;23.40;36.47
18569;BME280;14780;48.316;-1.050;2023-12-20T08:43:41;100127.56;;;23.45;36.48
18569;BME280;14780;48.316;-1.050;2023-12-20T08:46:25;100131.59;;;23.43;36.51
18569;BME280;14780;48.316;-1.050;2023-12-20T08:49:10;100139.06;;;23.47;36.53
18569;BME280;14780;48.316;-1.050;2023-12-20T08:51:55;100143.72;;;23.47;36.42
18569;BME280;14780;48.316;-1.050;2023-12-20T08:54:39;100141.72;;;23.42;36.78
18569;BME280;14780;48.316;-1.050;2023-12-20T08:57:24;100140.75;;;23.48;36.60
18569;BME280;14780;48.316;-1.050;2023-12-20T09:00:10;100138.00;;;23.48;36.73
18569;BME280;14780;48.316;-1.050;2023-12-20T09:02:55;100135.75;;;23.45;36.88
18569;BME280;14780;48.316;-1.050;2023-12-20T09:05:40;100138.31;;;23.36;36.52
18569;BME280;14780;48.316;-1.050;2023-12-20T09:08:25;100131.41;;;23.33;35.69
18569;BME280;14780;48.316;-1.050;2023-12-20T09:11:10;100151.63;;;23.32;35.62
18569;BME280;14780;48.316;-1.050;2023-12-20T09:13:55;100141.63;;;23.38;35.01
18569;BME280;14780;48.316;-1.050;2023-12-20T09:16:40;100134.72;;;23.35;34.55
18569;BME280;14780;48.316;-1.050;2023-12-20T09:19:25;100125.63;;;23.30;33.66
18569;BME280;14780;48.316;-1.050;2023-12-20T09:22:10;100128.25;;;23.25;33.74
18569;BME280;14780;48.316;-1.050;2023-12-20T09:24:54;100115.66;;;23.24;33.52
18569;BME280;14780;48.316;-1.050;2023-12-20T09:27:39;100098.94;;;23.20;33.42
18569;BME280;14780;48.316;-1.050;2023-12-20T09:30:24;100090.50;;;23.22;33.41
18569;BME280;14780;48.316;-1.050;2023-12-20T09:33:09;100091.81;;;23.19;33.28
18569;BME280;14780;48.316;-1.050;2023-12-20T09:35:54;100104.63;;;23.19;33.37
18569;BME280;14780;48.316;-1.050;2023-12-20T09:38:39;100100.59;;;23.21;33.42
18569;BME280;14780;48.316;-1.050;2023-12-20T09:41:25;100109.38;;;23.23;33.32
18569;BME280;14780;48.316;-1.050;2023-12-20T09:44:16;100114.47;;;23.31;33.19
18569;BME280;14780;48.316;-1.050;2023-12-20T09:47:03;100105.59;;;23.40;33.36
18569;BME280;14780;48.316;-1.050;2023-12-20T09:49:48;100119.06;;;23.58;33.64
18569;BME280;14780;48.316;-1.050;2023-12-20T09:52:35;100110.97;;;23.63;33.42
18569;BME280;14780;48.316;-1.050;2023-12-20T09:55:21;100128.41;;;23.62;33.78
18569;BME280;14780;48.316;-1.050;2023-12-20T09:58:06;100123.22;;;23.61;33.92
18569;BME280;14780;48.316;-1.050;2023-12-20T10:00:53;100143.25;;;23.66;33.95
18569;BME280;14780;48.316;-1.050;2023-12-20T10:03:40;100137.13;;;23.59;34.26
18569;BME280;14780;48.316;-1.050;2023-12-20T10:06:25;100134.72;;;23.63;33.89
18569;BME280;14780;48.316;-1.050;2023-12-20T10:09:11;100138.44;;;23.57;33.59
18569;BME280;14780;48.316;-1.050;2023-12-20T10:11:56;100133.94;;;23.51;33.46
18569;BME280;14780;48.316;-1.050;2023-12-20T10:14:42;100138.00;;;23.48;33.39
18569;BME280;14780;48.316;-1.050;2023-12-20T10:17:27;100139.06;;;23.47;33.61
18569;BME280;14780;48.316;-1.050;2023-12-20T10:20:14;100149.31;;;23.40;33.48
18569;BME280;14780;48.316;-1.050;2023-12-20T10:23:00;100150.16;;;23.41;33.52
18569;BME280;14780;48.316;-1.050;2023-12-20T10:25:59;100156.44;;;23.42;33.38
18569;BME280;14780;48.316;-1.050;2023-12-20T10:28:44;100150.88;;;23.37;33.28
18569;BME280;14780;48.316;-1.050;2023-12-20T10:31:35;100142.19;;;23.39;33.44
18569;BME280;14780;48.316;-1.050;2023-12-20T10:34:20;100144.44;;;23.42;33.46
18569;BME280;14780;48.316;-1.050;2023-12-20T10:37:05;100147.88;;;23.49;33.52
18569;BME280;14780;48.316;-1.050;2023-12-20T10:39:51;100135.91;;;23.67;33.47
18569;BME280;14780;48.316;-1.050;2023-12-20T10:42:38;100136.31;;;23.75;33.28
18569;BME280;14780;48.316;-1.050;2023-12-20T10:45:24;100132.03;;;23.79;33.29
18569;BME280;14780;48.316;-1.050;2023-12-20T10:48:10;100122.22;;;23.83;33.29
18569;BME280;14780;48.316;-1.050;2023-12-20T10:50:58;100131.75;;;23.92;33.23
18569;BME280;14780;48.316;-1.050;2023-12-20T10:53:45;100120.47;;;23.89;33.27
18569;BME280;14780;48.316;-1.050;2023-12-20T10:56:33;100128.72;;;23.77;33.25
18569;BME280;14780;48.316;-1.050;2023-12-20T10:59:20;100120.41;;;23.72;33.33
18569;BME280;14780;48.316;-1.050;2023-12-20T11:02:07;100114.28;;;23.65;33.42
18569;BME280;14780;48.316;-1.050;2023-12-20T11:08:12;100112.00;;;23.90;33.53
18569;BME280;14780;48.316;-1.050;2023-12-20T11:11:12;100107.38;;;23.91;33.57
18569;BME280;14780;48.316;-1.050;2023-12-20T11:16:47;100110.50;;;23.83;33.74
18569;BME280;14780;48.316;-1.050;2023-12-20T11:19:32;100105.84;;;23.83;33.55
18569;BME280;14780;48.316;-1.050;2023-12-20T11:22:16;100110.59;;;23.88;33.96
18569;BME280;14780;48.316;-1.050;2023-12-20T11:25:06;100096.34;;;23.86;33.99
18569;BME280;14780;48.316;-1.050;2023-12-20T11:28:08;100090.63;;;23.87;34.08
18569;BME280;14780;48.316;-1.050;2023-12-20T11:30:55;100083.97;;;23.83;34.10
18569;BME280;14780;48.316;-1.050;2023-12-20T11:33:40;100083.63;;;23.80;34.14
18569;BME280;14780;48.316;-1.050;2023-12-20T11:36:26;100078.84;;;23.70;34.28
18569;BME280;14780;48.316;-1.050;2023-12-20T11:39:10;100070.91;;;23.69;34.18
18569;BME280;14780;48.316;-1.050;2023-12-20T11:41:56;100068.41;;;23.67;34.40
18569;BME280;14780;48.316;-1.050;2023-12-20T11:44:43;100070.47;;;23.77;34.20
18569;BME280;14780;48.316;-1.050;2023-12-20T11:47:30;100079.00;;;23.80;34.23
18569;BME280;14780;48.316;-1.050;2023-12-20T11:50:17;100066.56;;;23.73;34.40
18569;BME280;14780;48.316;-1.050;2023-12-20T11:53:02;100065.66;;;23.67;34.51
18569;BME280;14780;48.316;-1.050;2023-12-20T11:55:49;100074.09;;;23.66;34.61
18569;BME280;14780;48.316;-1.050;2023-12-20T11:58:37;100056.66;;;23.67;34.57
18569;BME280;14780;48.316;-1.050;2023-12-20T12:01:22;100056.31;;;23.63;34.57
18569;BME280;14780;48.316;-1.050;2023-12-20T12:04:07;100053.00;;;23.61;34.70
18569;BME280;14780;48.316;-1.050;2023-12-20T12:06:51;100045.22;;;23.53;34.93
18569;BME280;14780;48.316;-1.050;2023-12-20T12:09:36;100042.75;;;23.52;34.97
18569;BME280;14780;48.316;-1.050;2023-12-20T12:12:20;100036.09;;;23.48;34.99
18569;BME280;14780;48.316;-1.050;2023-12-20T12:15:06;100015.09;;;23.48;35.01
18569;BME280;14780;48.316;-1.050;2023-12-20T12:17:57;100005.31;;;23.52;34.89
18569;BME280;14780;48.316;-1.050;2023-12-20T12:20:43;100010.94;;;23.46;35.08
18569;BME280;14780;48.316;-1.050;2023-12-20T12:23:28;100006.22;;;23.42;35.24
18569;BME280;14780;48.316;-1.050;2023-12-20T12:26:13;99999.19;;;23.45;35.25
18569;BME280;14780;48.316;-1.050;2023-12-20T12:28:57;99986.09;;;23.47;35.18
18569;BME280;14780;48.316;-1.050;2023-12-20T12:31:42;99979.41;;;23.38;35.32
18569;BME280;14780;48.316;-1.050;2023-12-20T12:34:30;99981.03;;;23.39;35.32
18569;BME280;14780;48.316;-1.050;2023-12-20T12:37:15;99981.31;;;23.38;35.28
18569;BME280;14780;48.316;-1.050;2023-12-20T12:40:00;99980.97;;;23.35;35.32
18569;BME280;14780;48.316;-1.050;2023-12-20T12:42:45;99991.81;;;23.46;35.21
18569;BME280;14780;48.316;-1.050;2023-12-20T12:45:30;100001.09;;;23.45;35.26
18569;BME280;14780;48.316;-1.050;2023-12-20T12:48:15;99978.25;;;23.35;35.26
18569;BME280;14780;48.316;-1.050;2023-12-20T12:51:00;99994.06;;;23.49;35.02
18569;BME280;14780;48.316;-1.050;2023-12-20T12:53:45;99976.34;;;23.51;35.03
18569;BME280;14780;48.316;-1.050;2023-12-20T12:56:30;99973.84;;;23.50;34.94
18569;BME280;14780;48.316;-1.050;2023-12-20T12:59:15;99972.78;;;23.51;34.99
18569;BME280;14780;48.316;-1.050;2023-12-20T13:01:59;99970.03;;;23.51;35.06
18569;BME280;14780;48.316;-1.050;2023-12-20T13:04:46;99959.38;;;23.49;34.98
18569;BME280;14780;48.316;-1.050;2023-12-20T13:07:31;99958.34;;;23.55;34.92
18569;BME280;14780;48.316;-1.050;2023-12-20T13:10:16;99962.44;;;23.53;35.01
18569;BME280;14780;48.316;-1.050;2023-12-20T13:13:01;99958.13;;;23.57;35.06
18569;BME280;14780;48.316;-1.050;2023-12-20T13:15:45;99958.44;;;23.60;34.89
18569;BME280;14780;48.316;-1.050;2023-12-20T13:18:35;99951.84;;;23.56;34.99
18569;BME280;14780;48.316;-1.050;2023-12-20T13:21:19;99963.91;;;23.60;34.91
18569;BME280;14780;48.316;-1.050;2023-12-20T13:24:04;99950.50;;;23.59;35.00
18569;BME280;14780;48.316;-1.050;2023-12-20T13:26:49;99948.50;;;23.54;35.06
18569;BME280;14780;48.316;-1.050;2023-12-20T13:29:34;99949.16;;;23.61;34.95
18569;BME280;14780;48.316;-1.050;2023-12-20T13:32:19;99953.56;;;23.62;34.86
18569;BME280;14780;48.316;-1.050;2023-12-20T13:35:04;99944.22;;;23.58;34.93
18569;BME280;14780;48.316;-1.050;2023-12-20T13:37:49;99932.97;;;23.55;35.15
18569;BME280;14780;48.316;-1.050;2023-12-20T13:40:34;99922.03;;;23.55;35.09
18569;BME280;14780;48.316;-1.050;2023-12-20T13:43:22;99885.63;;;23.49;35.05
18569;BME280;14780;48.316;-1.050;2023-12-20T13:46:07;99903.66;;;23.50;35.03
18569;BME280;14780;48.316;-1.050;2023-12-20T13:48:52;99895.47;;;23.34;35.21
18569;BME280;14780;48.316;-1.050;2023-12-20T13:51:36;99889.84;;;23.40;35.11
18569;BME280;14780;48.316;-1.050;2023-12-20T13:54:21;99896.22;;;23.46;35.01
18569;BME280;14780;48.316;-1.050;2023-12-20T13:57:07;99897.13;;;23.51;35.10
18569;BME280;14780;48.316;-1.050;2023-12-20T13:59:51;99884.56;;;23.50;35.34
18569;BME280;14780;48.316;-1.050;2023-12-20T14:02:36;99870.31;;;23.48;35.27
18569;BME280;14780;48.316;-1.050;2023-12-20T14:05:21;99879.84;;;23.46;35.28
18569;BME280;14780;48.316;-1.050;2023-12-20T14:08:07;99880.16;;;23.49;35.14
18569;BME280;14780;48.316;-1.050;2023-12-20T14:10:53;99864.88;;;23.48;35.20
18569;BME280;14780;48.316;-1.050;2023-12-20T14:13:38;99858.00;;;23.46;35.32
18569;BME280;14780;48.316;-1.050;2023-12-20T14:16:25;99859.88;;;23.45;35.25
18569;BME280;14780;48.316;-1.050;2023-12-20T14:19:11;99845.41;;;23.45;35.38
18569;BME280;14780;48.316;-1.050;2023-12-20T14:21:56;99833.72;;;23.49;35.25